createdAt,value
2022-07-30T00:00:30.895Z,2.55
2022-07-30T00:05:39.470Z,2.70
2022-07-30T00:10:50.882Z,2.42
2022-07-30T00:15:53.414Z,2.60
2022-07-30T00:20:57.087Z,2.50
2022-07-30T00:26:01.051Z,2.92
2022-07-30T00:31:09.639Z,2.95
2022-07-30T00:36:12.451Z,2.55
2022-07-30T00:41:16.501Z,2.50
2022-07-30T00:46:19.152Z,2.75
2022-07-30T00:51:21.794Z,2.63
2022-07-30T00:56:25.923Z,2.67
2022-07-30T01:01:28.582Z,3.05
2022-07-30T01:06:33.456Z,2.70
2022-07-30T01:11:38.865Z,2.95
2022-07-30T01:16:43.287Z,2.63
2022-07-30T01:21:47.957Z,2.70
2022-07-30T01:26:52.487Z,3.00
2022-07-30T01:31:59.628Z,2.95
2022-07-30T01:37:03.767Z,2.90
2022-07-30T01:42:09.200Z,2.50
2022-07-30T01:47:12.801Z,2.88
2022-07-30T01:52:16.283Z,2.70
2022-07-30T01:57:22.157Z,3.08
2022-07-30T02:02:25.481Z,3.05
2022-07-30T02:07:31.210Z,2.97
2022-07-30T02:12:36.788Z,2.70
2022-07-30T02:17:45.022Z,2.75
2022-07-30T02:22:48.274Z,2.90
2022-07-30T02:27:53.932Z,2.83
2022-07-30T02:33:00.406Z,2.88
2022-07-30T02:38:03.760Z,2.60
2022-07-30T02:43:07.905Z,2.85
2022-07-30T02:48:11.514Z,2.75
2022-07-30T02:53:34.966Z,2.75
2022-07-30T02:58:40.390Z,2.78
2022-07-30T03:03:43.980Z,3.00
2022-07-30T03:08:47.393Z,2.90
2022-07-30T03:13:51.545Z,2.70
2022-07-30T03:18:55.340Z,2.80
2022-07-30T03:23:59.170Z,2.95
2022-07-30T03:29:03.309Z,2.90
2022-07-30T03:34:07.511Z,2.80
2022-07-30T03:39:11.102Z,2.70
2022-07-30T03:44:15.127Z,2.90
2022-07-30T03:49:18.272Z,2.65
2022-07-30T03:54:21.146Z,2.88
2022-07-30T03:59:25.153Z,2.50
2022-07-30T04:04:28.016Z,2.65
2022-07-30T04:09:30.536Z,2.75
2022-07-30T04:14:39.801Z,2.60
2022-07-30T04:19:44.708Z,2.72
2022-07-30T04:24:47.853Z,2.63
2022-07-30T04:29:51.750Z,2.35
2022-07-30T04:34:55.169Z,2.45
2022-07-30T04:39:58.221Z,2.35
2022-07-30T04:45:02.266Z,2.33
2022-07-30T04:50:05.555Z,2.38
2022-07-30T04:55:09.950Z,2.20
2022-07-30T05:00:14.595Z,1.90
2022-07-30T05:05:17.883Z,2.40
2022-07-30T05:10:20.735Z,1.98
2022-07-30T05:15:36.251Z,2.13
2022-07-30T05:20:40.035Z,2.05
2022-07-30T05:25:43.778Z,2.17
2022-07-30T05:30:47.711Z,2.15
2022-07-30T05:35:51.387Z,2.10
2022-07-30T05:40:54.058Z,2.05
2022-07-30T05:45:58.540Z,1.95
2022-07-30T05:51:01.229Z,1.85
2022-07-30T05:56:06.533Z,1.58
2022-07-30T06:01:10.730Z,1.73
2022-07-30T06:06:22.766Z,1.50
2022-07-30T06:11:27.620Z,1.65
2022-07-30T06:16:31.770Z,1.60
2022-07-30T06:22:05.287Z,1.80
2022-07-30T06:27:03.414Z,1.77
2022-07-30T06:32:08.093Z,1.63
2022-07-30T06:37:10.858Z,1.77
2022-07-30T06:42:13.453Z,1.70
2022-07-30T06:47:26.243Z,1.75
2022-07-30T06:52:29.004Z,1.90
2022-07-30T06:57:31.798Z,1.83
2022-07-30T07:02:42.641Z,1.95
2022-07-30T07:07:57.866Z,1.92
2022-07-30T07:13:08.096Z,1.92
2022-07-30T07:18:13.372Z,1.60
2022-07-30T07:23:16.129Z,2.00
2022-07-30T07:28:22.642Z,1.88
2022-07-30T07:33:37.526Z,1.98
2022-07-30T07:38:40.079Z,2.08
2022-07-30T07:43:42.686Z,2.10
2022-07-30T07:48:46.876Z,1.60
2022-07-30T07:54:18.632Z,2.03
2022-07-30T07:59:11.895Z,1.92
2022-07-30T08:04:18.643Z,1.83
2022-07-30T08:09:21.454Z,1.80
2022-07-30T08:14:24.036Z,1.80
2022-07-30T08:19:27.971Z,2.20
2022-07-30T08:24:30.513Z,1.90
2022-07-30T08:29:33.061Z,2.10
2022-07-30T08:34:36.932Z,1.95
2022-07-30T08:39:47.523Z,2.28
2022-07-30T08:44:52.745Z,1.88
2022-07-30T08:50:01.485Z,1.73
2022-07-30T08:55:06.504Z,2.05
2022-07-30T09:00:09.989Z,2.05
2022-07-30T09:05:14.149Z,2.10
2022-07-30T09:10:17.619Z,2.13
2022-07-30T09:15:21.044Z,1.90
2022-07-30T09:20:26.270Z,1.98
2022-07-30T09:25:36.000Z,2.08
2022-07-30T09:30:48.941Z,1.95
2022-07-30T09:35:56.909Z,2.03
2022-07-30T09:41:04.841Z,2.22
2022-07-30T09:46:15.307Z,2.40
2022-07-30T09:51:22.555Z,2.35
2022-07-30T09:56:53.772Z,2.05
2022-07-30T10:02:04.056Z,2.13
2022-07-30T10:07:25.470Z,2.33
2022-07-30T10:12:28.897Z,2.10
2022-07-30T10:17:32.588Z,2.20
2022-07-30T10:22:37.197Z,2.30
2022-07-30T10:27:40.535Z,2.10
2022-07-30T10:32:44.065Z,2.30
2022-07-30T10:37:50.097Z,2.30
2022-07-30T10:43:13.025Z,2.05
2022-07-30T10:48:19.615Z,1.90
2022-07-30T10:53:37.228Z,2.17
2022-07-30T10:58:54.646Z,2.15
2022-07-30T11:04:17.167Z,1.85
2022-07-30T11:09:40.953Z,1.90
2022-07-30T11:15:07.269Z,1.85
2022-07-30T11:20:21.741Z,2.95
2022-07-30T11:25:51.311Z,1.90
2022-07-30T11:30:57.091Z,1.70
2022-07-30T11:36:16.752Z,1.67
2022-07-30T11:41:21.510Z,1.70
2022-07-30T11:46:28.605Z,1.90
2022-07-30T11:51:40.684Z,1.50
2022-07-30T11:56:50.468Z,1.40
2022-07-30T12:01:53.377Z,1.80
2022-07-30T12:06:55.989Z,1.70
2022-07-30T12:12:00.197Z,1.40
2022-07-30T12:17:04.000Z,1.60
2022-07-30T12:22:07.090Z,1.40
2022-07-30T12:27:11.839Z,1.70
2022-07-30T12:32:14.366Z,1.65
2022-07-30T12:37:25.540Z,1.65
2022-07-30T12:42:29.596Z,1.58
2022-07-30T12:47:33.820Z,2.03
2022-07-30T12:52:37.714Z,2.08
2022-07-30T12:57:54.176Z,1.92
2022-07-30T13:02:57.157Z,1.70
2022-07-30T13:08:01.182Z,2.00
2022-07-30T13:13:05.160Z,1.80
2022-07-30T13:18:07.651Z,1.90
2022-07-30T13:23:10.116Z,1.90
2022-07-30T13:28:14.142Z,1.80
2022-07-30T13:33:16.997Z,1.83
2022-07-30T13:38:19.827Z,2.08
2022-07-30T13:43:26.728Z,1.95
2022-07-30T13:48:29.428Z,1.80
2022-07-30T13:53:32.419Z,1.88
2022-07-30T13:58:37.136Z,1.80
2022-07-30T14:03:43.002Z,2.22
2022-07-30T14:08:48.897Z,2.13
2022-07-30T14:13:53.208Z,1.85
2022-07-30T14:18:57.470Z,1.77
2022-07-30T14:24:01.184Z,1.63
2022-07-30T14:29:06.245Z,1.88
2022-07-30T14:40:14.936Z,1.88
2022-07-30T14:45:20.340Z,1.80
2022-07-30T14:51:17.702Z,2.30
2022-07-30T14:56:23.926Z,1.88
2022-07-30T15:01:27.889Z,1.75
2022-07-30T15:06:31.029Z,1.63
2022-07-30T15:11:45.051Z,1.95
2022-07-30T15:17:03.965Z,1.90
2022-07-30T15:22:45.230Z,1.80
2022-07-30T15:27:48.146Z,1.90
2022-07-30T15:32:54.664Z,1.98
2022-07-30T15:37:57.671Z,1.70
2022-07-30T15:43:00.372Z,1.80
2022-07-30T15:48:05.330Z,1.70
2022-07-30T15:53:12.559Z,2.00
2022-07-30T15:58:17.823Z,1.98
2022-07-30T16:03:22.047Z,1.70
2022-07-30T16:08:24.669Z,1.90
2022-07-30T16:13:27.557Z,1.90
2022-07-30T16:18:31.681Z,1.65
2022-07-30T16:23:37.042Z,1.60
2022-07-30T16:28:42.078Z,1.67
2022-07-30T16:33:47.327Z,1.80
2022-07-30T16:38:49.914Z,1.65
2022-07-30T16:43:52.981Z,1.90
2022-07-30T16:48:57.139Z,1.90
2022-07-30T16:53:59.858Z,2.25
2022-07-30T16:59:02.474Z,2.00
2022-07-30T17:04:06.630Z,1.80
2022-07-30T17:09:09.387Z,1.90
